sensor_id;sensor_type;location;lat;lon;timestamp;P1;durP1;ratioP1;P2;durP2;ratioP2
67762;SDS011;54566;52.022;5.582;2023-07-20T00:02:07;12.15;;;6.00;;
67762;SDS011;54566;52.022;5.582;2023-07-20T00:04:33;8.35;;;5.82;;
67762;SDS011;54566;52.022;5.582;2023-07-20T00:06:59;12.80;;;6.30;;
67762;SDS011;54566;52.022;5.582;2023-07-20T00:09:28;7.93;;;5.60;;
67762;SDS011;54566;52.022;5.582;2023-07-20T00:11:54;10.20;;;6.28;;
67762;SDS011;54566;52.022;5.582;2023-07-20T00:14:22;13.52;;;6.30;;
67762;SDS011;54566;52.022;5.582;2023-07-20T00:16:49;11.40;;;6.07;;
67762;SDS011;54566;52.022;5.582;2023-07-20T00:19:24;8.63;;;6.05;;
67762;SDS011;54566;52.022;5.582;2023-07-20T00:21:50;10.75;;;6.05;;
67762;SDS011;54566;52.022;5.582;2023-07-20T00:24:16;8.38;;;5.43;;
67762;SDS011;54566;52.022;5.582;2023-07-20T00:26:43;10.25;;;5.55;;
67762;SDS011;54566;52.022;5.582;2023-07-20T00:29:09;8.98;;;4.65;;
67762;SDS011;54566;52.022;5.582;2023-07-20T00:31:35;10.35;;;5.22;;
67762;SDS011;54566;52.022;5.582;2023-07-20T00:34:05;7.47;;;5.50;;
67762;SDS011;54566;52.022;5.582;2023-07-20T00:36:32;8.35;;;4.88;;
67762;SDS011;54566;52.022;5.582;2023-07-20T00:38:58;8.85;;;5.00;;
67762;SDS011;54566;52.022;5.582;2023-07-20T00:41:24;10.80;;;5.10;;
67762;SDS011;54566;52.022;5.582;2023-07-20T00:43:54;9.80;;;5.15;;
67762;SDS011;54566;52.022;5.582;2023-07-20T00:46:20;8.65;;;5.18;;
67762;SDS011;54566;52.022;5.582;2023-07-20T00:48:48;9.30;;;4.93;;
67762;SDS011;54566;52.022;5.582;2023-07-20T00:51:14;8.48;;;5.10;;
67762;SDS011;54566;52.022;5.582;2023-07-20T00:53:40;10.88;;;5.00;;
67762;SDS011;54566;52.022;5.582;2023-07-20T00:56:06;7.00;;;4.50;;
67762;SDS011;54566;52.022;5.582;2023-07-20T00:58:33;5.78;;;4.45;;
67762;SDS011;54566;52.022;5.582;2023-07-20T01:00:59;6.72;;;4.00;;
67762;SDS011;54566;52.022;5.582;2023-07-20T01:03:25;7.13;;;3.88;;
67762;SDS011;54566;52.022;5.582;2023-07-20T01:08:21;5.25;;;3.47;;
67762;SDS011;54566;52.022;5.582;2023-07-20T01:10:51;5.80;;;3.47;;
67762;SDS011;54566;52.022;5.582;2023-07-20T01:13:20;5.78;;;3.80;;
67762;SDS011;54566;52.022;5.582;2023-07-20T01:15:53;7.45;;;3.65;;
67762;SDS011;54566;52.022;5.582;2023-07-20T01:18:19;6.10;;;2.97;;
67762;SDS011;54566;52.022;5.582;2023-07-20T01:20:45;3.88;;;2.60;;
67762;SDS011;54566;52.022;5.582;2023-07-20T01:29:11;3.17;;;2.45;;
67762;SDS011;54566;52.022;5.582;2023-07-20T01:31:43;6.35;;;2.03;;
67762;SDS011;54566;52.022;5.582;2023-07-20T01:34:10;4.15;;;2.10;;
67762;SDS011;54566;52.022;5.582;2023-07-20T01:36:39;3.90;;;2.03;;
67762;SDS011;54566;52.022;5.582;2023-07-20T01:39:05;2.45;;;1.95;;
67762;SDS011;54566;52.022;5.582;2023-07-20T01:41:32;3.20;;;1.92;;
67762;SDS011;54566;52.022;5.582;2023-07-20T01:43:58;3.72;;;2.13;;
67762;SDS011;54566;52.022;5.582;2023-07-20T01:46:24;4.22;;;2.00;;
67762;SDS011;54566;52.022;5.582;2023-07-20T01:48:50;3.05;;;1.80;;
67762;SDS011;54566;52.022;5.582;2023-07-20T01:51:16;4.82;;;2.25;;
67762;SDS011;54566;52.022;5.582;2023-07-20T01:53:45;2.70;;;1.77;;
67762;SDS011;54566;52.022;5.582;2023-07-20T01:56:11;3.38;;;2.20;;
67762;SDS011;54566;52.022;5.582;2023-07-20T01:58:38;2.10;;;1.90;;
67762;SDS011;54566;52.022;5.582;2023-07-20T02:01:04;2.67;;;1.98;;
67762;SDS011;54566;52.022;5.582;2023-07-20T02:03:30;4.28;;;1.92;;
67762;SDS011;54566;52.022;5.582;2023-07-20T02:05:56;2.40;;;2.10;;
67762;SDS011;54566;52.022;5.582;2023-07-20T02:08:22;1.95;;;1.70;;
67762;SDS011;54566;52.022;5.582;2023-07-20T02:10:48;5.63;;;2.22;;
67762;SDS011;54566;52.022;5.582;2023-07-20T02:13:15;3.58;;;2.03;;
67762;SDS011;54566;52.022;5.582;2023-07-20T02:15:41;3.53;;;1.88;;
67762;SDS011;54566;52.022;5.582;2023-07-20T02:18:12;2.45;;;2.13;;
67762;SDS011;54566;52.022;5.582;2023-07-20T02:20:40;3.42;;;2.15;;
67762;SDS011;54566;52.022;5.582;2023-07-20T02:23:06;2.45;;;2.03;;
67762;SDS011;54566;52.022;5.582;2023-07-20T02:25:32;7.80;;;2.10;;
67762;SDS011;54566;52.022;5.582;2023-07-20T02:27:58;2.58;;;1.95;;
67762;SDS011;54566;52.022;5.582;2023-07-20T02:30:24;3.28;;;2.30;;
67762;SDS011;54566;52.022;5.582;2023-07-20T02:32:50;2.97;;;2.28;;
67762;SDS011;54566;52.022;5.582;2023-07-20T02:35:16;3.72;;;2.30;;
67762;SDS011;54566;52.022;5.582;2023-07-20T02:37:42;4.72;;;2.38;;
67762;SDS011;54566;52.022;5.582;2023-07-20T02:40:09;5.68;;;2.45;;
67762;SDS011;54566;52.022;5.582;2023-07-20T02:42:35;3.92;;;2.50;;
67762;SDS011;54566;52.022;5.582;2023-07-20T02:45:02;2.90;;;2.65;;
67762;SDS011;54566;52.022;5.582;2023-07-20T02:47:29;2.92;;;2.60;;
67762;SDS011;54566;52.022;5.582;2023-07-20T02:49:56;3.08;;;2.10;;
67762;SDS011;54566;52.022;5.582;2023-07-20T02:52:22;2.45;;;2.25;;
67762;SDS011;54566;52.022;5.582;2023-07-20T02:54:49;2.85;;;2.53;;
67762;SDS011;54566;52.022;5.582;2023-07-20T02:57:15;7.28;;;2.47;;
67762;SDS011;54566;52.022;5.582;2023-07-20T02:59:41;2.97;;;2.40;;
67762;SDS011;54566;52.022;5.582;2023-07-20T03:02:07;3.03;;;2.70;;
67762;SDS011;54566;52.022;5.582;2023-07-20T03:04:34;3.00;;;2.70;;
67762;SDS011;54566;52.022;5.582;2023-07-20T03:07:02;3.00;;;2.50;;
67762;SDS011;54566;52.022;5.582;2023-07-20T03:09:28;3.75;;;2.15;;
67762;SDS011;54566;52.022;5.582;2023-07-20T03:11:54;2.70;;;2.50;;
67762;SDS011;54566;52.022;5.582;2023-07-20T03:14:20;3.72;;;2.42;;
67762;SDS011;54566;52.022;5.582;2023-07-20T03:16:46;3.83;;;2.58;;
67762;SDS011;54566;52.022;5.582;2023-07-20T03:19:12;4.82;;;2.38;;
67762;SDS011;54566;52.022;5.582;2023-07-20T03:21:38;3.33;;;2.78;;
67762;SDS011;54566;52.022;5.582;2023-07-20T03:24:06;3.40;;;2.57;;
67762;SDS011;54566;52.022;5.582;2023-07-20T03:26:33;3.03;;;2.77;;
67762;SDS011;54566;52.022;5.582;2023-07-20T03:28:59;3.80;;;3.17;;
67762;SDS011;54566;52.022;5.582;2023-07-20T03:31:25;4.03;;;2.80;;
67762;SDS011;54566;52.022;5.582;2023-07-20T03:33:51;4.97;;;3.20;;
67762;SDS011;54566;52.022;5.582;2023-07-20T03:36:17;3.13;;;2.83;;
67762;SDS011;54566;52.022;5.582;2023-07-20T03:38:43;4.03;;;3.17;;
67762;SDS011;54566;52.022;5.582;2023-07-20T03:41:09;3.75;;;3.20;;
67762;SDS011;54566;52.022;5.582;2023-07-20T03:43:36;5.47;;;3.45;;
67762;SDS011;54566;52.022;5.582;2023-07-20T03:46:03;5.10;;;3.45;;
67762;SDS011;54566;52.022;5.582;2023-07-20T03:48:32;4.57;;;3.35;;
67762;SDS011;54566;52.022;5.582;2023-07-20T03:50:58;5.80;;;3.60;;
67762;SDS011;54566;52.022;5.582;2023-07-20T03:53:25;4.00;;;3.30;;
67762;SDS011;54566;52.022;5.582;2023-07-20T03:55:52;3.53;;;3.08;;
67762;SDS011;54566;52.022;5.582;2023-07-20T03:58:18;4.45;;;3.20;;
67762;SDS011;54566;52.022;5.582;2023-07-20T04:00:45;5.35;;;3.25;;
67762;SDS011;54566;52.022;5.582;2023-07-20T04:03:11;3.33;;;2.83;;
67762;SDS011;54566;52.022;5.582;2023-07-20T04:05:37;3.40;;;2.90;;
67762;SDS011;54566;52.022;5.582;2023-07-20T04:08:03;4.00;;;3.10;;
67762;SDS011;54566;52.022;5.582;2023-07-20T04:10:29;4.15;;;2.47;;
67762;SDS011;54566;52.022;5.582;2023-07-20T04:12:55;3.80;;;3.10;;
67762;SDS011;54566;52.022;5.582;2023-07-20T04:15:22;7.45;;;2.70;;
67762;SDS011;54566;52.022;5.582;2023-07-20T04:17:48;3.35;;;2.35;;
67762;SDS011;54566;52.022;5.582;2023-07-20T04:20:14;4.25;;;2.75;;
67762;SDS011;54566;52.022;5.582;2023-07-20T04:22:40;4.78;;;2.70;;
67762;SDS011;54566;52.022;5.582;2023-07-20T04:25:06;3.10;;;2.60;;
67762;SDS011;54566;52.022;5.582;2023-07-20T04:27:32;2.90;;;2.63;;
67762;SDS011;54566;52.022;5.582;2023-07-20T04:29:58;2.80;;;2.58;;
67762;SDS011;54566;52.022;5.582;2023-07-20T04:32:25;3.00;;;2.50;;
67762;SDS011;54566;52.022;5.582;2023-07-20T04:34:51;4.38;;;2.67;;
67762;SDS011;54566;52.022;5.582;2023-07-20T04:37:17;2.97;;;2.50;;
67762;SDS011;54566;52.022;5.582;2023-07-20T04:39:43;4.10;;;2.65;;
67762;SDS011;54566;52.022;5.582;2023-07-20T04:42:09;3.90;;;2.65;;
67762;SDS011;54566;52.022;5.582;2023-07-20T04:44:35;3.67;;;2.70;;
67762;SDS011;54566;52.022;5.582;2023-07-20T04:47:01;4.38;;;2.28;;
67762;SDS011;54566;52.022;5.582;2023-07-20T04:49:28;4.80;;;2.50;;
67762;SDS011;54566;52.022;5.582;2023-07-20T04:51:54;3.03;;;2.58;;
67762;SDS011;54566;52.022;5.582;2023-07-20T04:54:20;3.65;;;2.42;;
67762;SDS011;54566;52.022;5.582;2023-07-20T04:56:46;2.63;;;2.03;;
67762;SDS011;54566;52.022;5.582;2023-07-20T04:59:12;2.83;;;2.38;;
67762;SDS011;54566;52.022;5.582;2023-07-20T05:01:38;4.90;;;2.50;;
67762;SDS011;54566;52.022;5.582;2023-07-20T05:04:04;4.32;;;2.50;;
67762;SDS011;54566;52.022;5.582;2023-07-20T05:06:30;5.03;;;2.55;;
67762;SDS011;54566;52.022;5.582;2023-07-20T05:08:56;4.80;;;2.80;;
67762;SDS011;54566;52.022;5.582;2023-07-20T05:11:22;5.00;;;2.75;;
67762;SDS011;54566;52.022;5.582;2023-07-20T05:13:48;7.40;;;2.83;;
67762;SDS011;54566;52.022;5.582;2023-07-20T05:16:14;3.80;;;2.70;;
67762;SDS011;54566;52.022;5.582;2023-07-20T05:18:40;4.60;;;3.20;;
67762;SDS011;54566;52.022;5.582;2023-07-20T05:21:06;3.63;;;2.67;;
67762;SDS011;54566;52.022;5.582;2023-07-20T05:23:33;6.50;;;2.70;;
67762;SDS011;54566;52.022;5.582;2023-07-20T05:25:59;2.90;;;2.55;;
67762;SDS011;54566;52.022;5.582;2023-07-20T05:28:26;3.95;;;2.70;;
67762;SDS011;54566;52.022;5.582;2023-07-20T05:30:52;3.25;;;2.58;;
67762;SDS011;54566;52.022;5.582;2023-07-20T05:33:19;3.58;;;3.10;;
67762;SDS011;54566;52.022;5.582;2023-07-20T05:35:45;5.13;;;3.20;;
67762;SDS011;54566;52.022;5.582;2023-07-20T05:38:11;4.18;;;3.03;;
67762;SDS011;54566;52.022;5.582;2023-07-20T05:40:38;5.13;;;2.90;;
67762;SDS011;54566;52.022;5.582;2023-07-20T05:43:04;5.13;;;3.17;;
67762;SDS011;54566;52.022;5.582;2023-07-20T05:45:30;5.55;;;3.40;;
67762;SDS011;54566;52.022;5.582;2023-07-20T05:47:56;6.00;;;3.20;;
67762;SDS011;54566;52.022;5.582;2023-07-20T05:50:23;5.55;;;3.38;;
67762;SDS011;54566;52.022;5.582;2023-07-20T05:52:52;4.77;;;3.60;;
67762;SDS011;54566;52.022;5.582;2023-07-20T05:55:18;5.30;;;3.47;;
67762;SDS011;54566;52.022;5.582;2023-07-20T05:57:44;8.05;;;3.63;;
67762;SDS011;54566;52.022;5.582;2023-07-20T06:00:10;6.55;;;3.38;;
67762;SDS011;54566;52.022;5.582;2023-07-20T06:02:38;7.30;;;3.92;;
67762;SDS011;54566;52.022;5.582;2023-07-20T06:05:05;8.52;;;3.70;;
67762;SDS011;54566;52.022;5.582;2023-07-20T06:07:32;5.20;;;3.83;;
67762;SDS011;54566;52.022;5.582;2023-07-20T06:09:58;6.43;;;3.75;;
67762;SDS011;54566;52.022;5.582;2023-07-20T06:12:24;7.50;;;3.13;;
67762;SDS011;54566;52.022;5.582;2023-07-20T06:14:50;5.60;;;3.17;;
67762;SDS011;54566;52.022;5.582;2023-07-20T06:17:16;8.13;;;3.42;;
67762;SDS011;54566;52.022;5.582;2023-07-20T06:19:42;5.50;;;2.80;;
67762;SDS011;54566;52.022;5.582;2023-07-20T06:22:08;4.00;;;2.22;;
67762;SDS011;54566;52.022;5.582;2023-07-20T06:24:34;5.20;;;2.40;;
67762;SDS011;54566;52.022;5.582;2023-07-20T06:27:01;2.75;;;2.17;;
67762;SDS011;54566;52.022;5.582;2023-07-20T06:29:27;4.43;;;2.45;;
67762;SDS011;54566;52.022;5.582;2023-07-20T06:31:53;3.30;;;2.00;;
67762;SDS011;54566;52.022;5.582;2023-07-20T06:34:19;2.58;;;1.60;;
67762;SDS011;54566;52.022;5.582;2023-07-20T06:36:45;9.20;;;2.20;;
67762;SDS011;54566;52.022;5.582;2023-07-20T06:39:11;5.40;;;1.90;;
67762;SDS011;54566;52.022;5.582;2023-07-20T06:41:39;4.03;;;1.73;;
67762;SDS011;54566;52.022;5.582;2023-07-20T06:44:05;2.95;;;1.58;;
67762;SDS011;54566;52.022;5.582;2023-07-20T06:46:32;1.95;;;1.70;;
67762;SDS011;54566;52.022;5.582;2023-07-20T06:48:59;2.95;;;1.90;;
67762;SDS011;54566;52.022;5.582;2023-07-20T06:51:25;2.85;;;1.85;;
67762;SDS011;54566;52.022;5.582;2023-07-20T06:53:51;2.55;;;1.80;;
67762;SDS011;54566;52.022;5.582;2023-07-20T06:56:17;1.98;;;1.33;;
67762;SDS011;54566;52.022;5.582;2023-07-20T06:58:43;3.30;;;1.48;;
67762;SDS011;54566;52.022;5.582;2023-07-20T07:01:09;3.60;;;1.42;;
67762;SDS011;54566;52.022;5.582;2023-07-20T07:03:35;3.03;;;1.08;;
67762;SDS011;54566;52.022;5.582;2023-07-20T07:06:01;2.00;;;1.15;;
67762;SDS011;54566;52.022;5.582;2023-07-20T07:08:28;2.35;;;1.10;;
67762;SDS011;54566;52.022;5.582;2023-07-20T07:10:54;3.15;;;1.10;;
67762;SDS011;54566;52.022;5.582;2023-07-20T07:13:21;5.70;;;1.23;;
67762;SDS011;54566;52.022;5.582;2023-07-20T07:15:48;5.78;;;1.05;;
67762;SDS011;54566;52.022;5.582;2023-07-20T07:18:14;4.35;;;1.25;;
67762;SDS011;54566;52.022;5.582;2023-07-20T07:20:40;2.65;;;1.00;;
67762;SDS011;54566;52.022;5.582;2023-07-20T07:23:06;3.38;;;0.70;;
67762;SDS011;54566;52.022;5.582;2023-07-20T07:25:32;3.25;;;0.82;;
67762;SDS011;54566;52.022;5.582;2023-07-20T07:27:58;2.80;;;1.25;;
67762;SDS011;54566;52.022;5.582;2023-07-20T07:30:24;1.55;;;1.05;;
67762;SDS011;54566;52.022;5.582;2023-07-20T07:32:50;4.47;;;0.88;;
67762;SDS011;54566;52.022;5.582;2023-07-20T07:35:17;2.50;;;1.05;;
67762;SDS011;54566;52.022;5.582;2023-07-20T07:37:46;1.17;;;0.82;;
67762;SDS011;54566;52.022;5.582;2023-07-20T07:40:12;4.22;;;1.08;;
67762;SDS011;54566;52.022;5.582;2023-07-20T07:42:39;1.85;;;0.90;;
67762;SDS011;54566;52.022;5.582;2023-07-20T07:45:05;1.05;;;0.80;;
67762;SDS011;54566;52.022;5.582;2023-07-20T07:47:31;2.03;;;0.80;;
67762;SDS011;54566;52.022;5.582;2023-07-20T07:50:01;2.13;;;1.10;;
67762;SDS011;54566;52.022;5.582;2023-07-20T07:52:27;2.17;;;1.00;;
67762;SDS011;54566;52.022;5.582;2023-07-20T07:54:53;3.50;;;1.00;;
67762;SDS011;54566;52.022;5.582;2023-07-20T07:57:19;2.08;;;1.20;;
67762;SDS011;54566;52.022;5.582;2023-07-20T07:59:45;2.03;;;0.95;;
67762;SDS011;54566;52.022;5.582;2023-07-20T08:02:11;2.05;;;0.85;;
67762;SDS011;54566;52.022;5.582;2023-07-20T08:04:37;2.08;;;0.80;;
67762;SDS011;54566;52.022;5.582;2023-07-20T08:07:04;1.23;;;0.90;;
67762;SDS011;54566;52.022;5.582;2023-07-20T08:09:30;2.05;;;0.88;;
67762;SDS011;54566;52.022;5.582;2023-07-20T08:11:56;2.10;;;0.75;;
67762;SDS011;54566;52.022;5.582;2023-07-20T08:14:22;2.75;;;0.90;;
67762;SDS011;54566;52.022;5.582;2023-07-20T08:16:48;2.55;;;0.90;;
67762;SDS011;54566;52.022;5.582;2023-07-20T08:19:14;1.50;;;1.00;;
67762;SDS011;54566;52.022;5.582;2023-07-20T08:21:40;2.25;;;1.20;;
67762;SDS011;54566;52.022;5.582;2023-07-20T08:24:06;9.52;;;0.93;;
67762;SDS011;54566;52.022;5.582;2023-07-20T08:26:32;2.15;;;0.80;;
67762;SDS011;54566;52.022;5.582;2023-07-20T08:28:58;3.38;;;1.08;;
67762;SDS011;54566;52.022;5.582;2023-07-20T08:31:24;2.40;;;0.90;;
67762;SDS011;54566;52.022;5.582;2023-07-20T08:33:50;2.00;;;0.80;;
67762;SDS011;54566;52.022;5.582;2023-07-20T08:36:16;3.03;;;0.80;;
67762;SDS011;54566;52.022;5.582;2023-07-20T08:38:42;2.45;;;0.82;;
67762;SDS011;54566;52.022;5.582;2023-07-20T08:41:08;4.72;;;1.08;;
67762;SDS011;54566;52.022;5.582;2023-07-20T08:43:34;1.88;;;1.00;;
67762;SDS011;54566;52.022;5.582;2023-07-20T08:46:01;2.70;;;1.00;;
67762;SDS011;54566;52.022;5.582;2023-07-20T08:48:28;1.80;;;0.98;;
67762;SDS011;54566;52.022;5.582;2023-07-20T08:50:56;1.92;;;0.80;;
67762;SDS011;54566;52.022;5.582;2023-07-20T08:53:22;4.82;;;1.98;;
67762;SDS011;54566;52.022;5.582;2023-07-20T08:55:50;2.28;;;1.00;;
67762;SDS011;54566;52.022;5.582;2023-07-20T08:58:17;0.95;;;0.85;;
67762;SDS011;54566;52.022;5.582;2023-07-20T09:00:43;2.78;;;0.80;;
67762;SDS011;54566;52.022;5.582;2023-07-20T09:03:10;2.20;;;0.90;;
67762;SDS011;54566;52.022;5.582;2023-07-20T09:05:36;4.05;;;1.00;;
67762;SDS011;54566;52.022;5.582;2023-07-20T09:08:05;3.90;;;0.80;;
67762;SDS011;54566;52.022;5.582;2023-07-20T09:10:31;1.50;;;1.00;;
67762;SDS011;54566;52.022;5.582;2023-07-20T09:12:57;2.78;;;1.20;;
67762;SDS011;54566;52.022;5.582;2023-07-20T09:15:23;2.70;;;1.10;;
67762;SDS011;54566;52.022;5.582;2023-07-20T09:17:50;3.50;;;0.90;;
67762;SDS011;54566;52.022;5.582;2023-07-20T09:20:18;2.28;;;1.10;;
67762;SDS011;54566;52.022;5.582;2023-07-20T09:22:44;3.65;;;1.20;;
67762;SDS011;54566;52.022;5.582;2023-07-20T09:25:14;2.67;;;1.20;;
67762;SDS011;54566;52.022;5.582;2023-07-20T09:27:41;1.63;;;1.10;;
67762;SDS011;54566;52.022;5.582;2023-07-20T09:30:08;1.65;;;1.15;;
67762;SDS011;54566;52.022;5.582;2023-07-20T09:32:42;2.22;;;1.00;;
67762;SDS011;54566;52.022;5.582;2023-07-20T09:35:15;4.03;;;1.10;;
67762;SDS011;54566;52.022;5.582;2023-07-20T09:37:55;7.00;;;1.20;;
67762;SDS011;54566;52.022;5.582;2023-07-20T09:40:24;4.22;;;0.90;;
67762;SDS011;54566;52.022;5.582;2023-07-20T09:42:51;2.75;;;1.05;;
67762;SDS011;54566;52.022;5.582;2023-07-20T09:45:27;1.75;;;1.23;;
67762;SDS011;54566;52.022;5.582;2023-07-20T09:47:54;1.95;;;1.20;;
67762;SDS011;54566;52.022;5.582;2023-07-20T09:50:28;1.73;;;0.95;;
67762;SDS011;54566;52.022;5.582;2023-07-20T09:52:54;2.20;;;0.68;;
67762;SDS011;54566;52.022;5.582;2023-07-20T09:55:21;1.90;;;0.70;;
67762;SDS011;54566;52.022;5.582;2023-07-20T09:57:49;0.80;;;0.70;;
67762;SDS011;54566;52.022;5.582;2023-07-20T10:00:15;1.80;;;1.00;;
67762;SDS011;54566;52.022;5.582;2023-07-20T10:02:42;1.15;;;0.80;;
67762;SDS011;54566;52.022;5.582;2023-07-20T10:05:09;2.58;;;0.65;;
67762;SDS011;54566;52.022;5.582;2023-07-20T10:07:36;1.17;;;0.60;;
67762;SDS011;54566;52.022;5.582;2023-07-20T10:10:05;1.02;;;0.85;;
67762;SDS011;54566;52.022;5.582;2023-07-20T10:12:32;1.15;;;0.52;;
67762;SDS011;54566;52.022;5.582;2023-07-20T10:17:49;2.60;;;0.70;;
67762;SDS011;54566;52.022;5.582;2023-07-20T10:20:18;1.20;;;0.70;;
67762;SDS011;54566;52.022;5.582;2023-07-20T10:22:46;0.50;;;0.50;;
67762;SDS011;54566;52.022;5.582;2023-07-20T10:25:13;1.10;;;0.90;;
67762;SDS011;54566;52.022;5.582;2023-07-20T10:27:39;1.00;;;0.60;;
67762;SDS011;54566;52.022;5.582;2023-07-20T10:30:06;0.90;;;0.70;;
67762;SDS011;54566;52.022;5.582;2023-07-20T10:32:32;0.73;;;0.68;;
67762;SDS011;54566;52.022;5.582;2023-07-20T10:34:59;3.38;;;0.70;;
67762;SDS011;54566;52.022;5.582;2023-07-20T10:43:02;2.97;;;0.77;;
67762;SDS011;54566;52.022;5.582;2023-07-20T10:48:12;2.45;;;0.70;;
67762;SDS011;54566;52.022;5.582;2023-07-20T10:50:40;2.58;;;0.75;;
67762;SDS011;54566;52.022;5.582;2023-07-20T10:53:10;1.23;;;0.90;;
67762;SDS011;54566;52.022;5.582;2023-07-20T10:55:37;0.75;;;0.75;;
67762;SDS011;54566;52.022;5.582;2023-07-20T10:58:13;0.90;;;0.70;;
67762;SDS011;54566;52.022;5.582;2023-07-20T11:00:59;4.28;;;0.90;;
67762;SDS011;54566;52.022;5.582;2023-07-20T11:03:26;2.38;;;1.20;;
67762;SDS011;54566;52.022;5.582;2023-07-20T11:05:52;3.00;;;1.20;;
67762;SDS011;54566;52.022;5.582;2023-07-20T11:08:38;2.17;;;0.70;;
67762;SDS011;54566;52.022;5.582;2023-07-20T11:13:55;0.50;;;0.50;;
67762;SDS011;54566;52.022;5.582;2023-07-20T11:16:35;4.93;;;0.75;;
67762;SDS011;54566;52.022;5.582;2023-07-20T11:19:01;1.08;;;0.60;;
67762;SDS011;54566;52.022;5.582;2023-07-20T11:21:28;0.50;;;0.50;;
67762;SDS011;54566;52.022;5.582;2023-07-20T11:23:55;1.33;;;0.80;;
67762;SDS011;54566;52.022;5.582;2023-07-20T11:26:21;0.98;;;0.65;;
67762;SDS011;54566;52.022;5.582;2023-07-20T11:28:50;1.63;;;0.70;;
67762;SDS011;54566;52.022;5.582;2023-07-20T11:31:17;1.90;;;0.73;;
67762;SDS011;54566;52.022;5.582;2023-07-20T11:33:43;1.70;;;0.77;;
67762;SDS011;54566;52.022;5.582;2023-07-20T11:36:09;8.13;;;1.00;;
67762;SDS011;54566;52.022;5.582;2023-07-20T11:38:35;0.65;;;0.65;;
67762;SDS011;54566;52.022;5.582;2023-07-20T11:41:04;2.00;;;0.70;;
67762;SDS011;54566;52.022;5.582;2023-07-20T11:43:30;3.40;;;0.70;;
67762;SDS011;54566;52.022;5.582;2023-07-20T11:45:56;3.42;;;0.73;;
67762;SDS011;54566;52.022;5.582;2023-07-20T11:48:22;1.80;;;0.85;;
67762;SDS011;54566;52.022;5.582;2023-07-20T11:50:48;2.22;;;0.60;;
67762;SDS011;54566;52.022;5.582;2023-07-20T11:53:14;3.33;;;0.75;;
67762;SDS011;54566;52.022;5.582;2023-07-20T11:55:41;1.05;;;0.80;;
67762;SDS011;54566;52.022;5.582;2023-07-20T11:58:08;1.77;;;0.63;;
67762;SDS011;54566;52.022;5.582;2023-07-20T12:00:36;0.88;;;0.65;;
67762;SDS011;54566;52.022;5.582;2023-07-20T12:03:04;2.93;;;0.60;;
67762;SDS011;54566;52.022;5.582;2023-07-20T12:05:31;1.45;;;0.60;;
67762;SDS011;54566;52.022;5.582;2023-07-20T12:07:57;0.73;;;0.60;;
67762;SDS011;54566;52.022;5.582;2023-07-20T12:10:24;4.88;;;1.77;;
67762;SDS011;54566;52.022;5.582;2023-07-20T12:12:51;2.55;;;0.68;;
67762;SDS011;54566;52.022;5.582;2023-07-20T12:17:44;13.98;;;0.80;;
67762;SDS011;54566;52.022;5.582;2023-07-20T12:20:10;1.50;;;0.70;;
67762;SDS011;54566;52.022;5.582;2023-07-20T12:22:40;1.80;;;0.70;;
67762;SDS011;54566;52.022;5.582;2023-07-20T12:25:06;1.02;;;0.60;;
67762;SDS011;54566;52.022;5.582;2023-07-20T12:27:35;0.57;;;0.53;;
67762;SDS011;54566;52.022;5.582;2023-07-20T12:30:01;0.50;;;0.50;;
67762;SDS011;54566;52.022;5.582;2023-07-20T12:32:29;1.90;;;0.60;;
67762;SDS011;54566;52.022;5.582;2023-07-20T12:34:55;2.75;;;0.57;;
67762;SDS011;54566;52.022;5.582;2023-07-20T12:37:21;1.45;;;0.63;;
67762;SDS011;54566;52.022;5.582;2023-07-20T12:39:47;1.02;;;0.80;;
67762;SDS011;54566;52.022;5.582;2023-07-20T12:42:13;1.00;;;0.70;;
67762;SDS011;54566;52.022;5.582;2023-07-20T12:44:42;1.13;;;0.70;;
67762;SDS011;54566;52.022;5.582;2023-07-20T12:47:08;2.60;;;0.75;;
67762;SDS011;54566;52.022;5.582;2023-07-20T12:49:34;2.03;;;0.68;;
67762;SDS011;54566;52.022;5.582;2023-07-20T12:52:00;1.65;;;0.65;;
67762;SDS011;54566;52.022;5.582;2023-07-20T12:54:26;1.13;;;0.57;;
67762;SDS011;54566;52.022;5.582;2023-07-20T12:56:52;1.83;;;0.70;;
67762;SDS011;54566;52.022;5.582;2023-07-20T12:59:18;3.50;;;0.80;;
67762;SDS011;54566;52.022;5.582;2023-07-20T13:01:44;2.13;;;0.73;;
67762;SDS011;54566;52.022;5.582;2023-07-20T13:04:10;3.67;;;0.95;;
67762;SDS011;54566;52.022;5.582;2023-07-20T13:06:36;7.53;;;0.80;;
67762;SDS011;54566;52.022;5.582;2023-07-20T13:09:02;1.73;;;0.60;;
67762;SDS011;54566;52.022;5.582;2023-07-20T13:11:29;3.13;;;0.65;;
67762;SDS011;54566;52.022;5.582;2023-07-20T13:13:55;1.42;;;0.60;;
67762;SDS011;54566;52.022;5.582;2023-07-20T13:16:21;0.93;;;0.60;;
67762;SDS011;54566;52.022;5.582;2023-07-20T13:18:47;1.63;;;0.60;;
67762;SDS011;54566;52.022;5.582;2023-07-20T13:21:13;1.10;;;0.70;;
67762;SDS011;54566;52.022;5.582;2023-07-20T13:23:39;2.53;;;0.70;;
67762;SDS011;54566;52.022;5.582;2023-07-20T13:26:05;2.33;;;0.63;;
67762;SDS011;54566;52.022;5.582;2023-07-20T13:28:33;2.08;;;0.80;;
67762;SDS011;54566;52.022;5.582;2023-07-20T13:30:59;2.90;;;0.80;;
67762;SDS011;54566;52.022;5.582;2023-07-20T13:33:25;0.95;;;0.60;;
67762;SDS011;54566;52.022;5.582;2023-07-20T13:35:51;3.13;;;0.70;;
67762;SDS011;54566;52.022;5.582;2023-07-20T13:38:17;1.45;;;0.60;;
67762;SDS011;54566;52.022;5.582;2023-07-20T13:40:43;2.28;;;0.80;;
67762;SDS011;54566;52.022;5.582;2023-07-20T13:43:09;2.83;;;1.17;;
67762;SDS011;54566;52.022;5.582;2023-07-20T13:45:36;2.05;;;1.00;;
67762;SDS011;54566;52.022;5.582;2023-07-20T13:48:01;1.55;;;0.73;;
67762;SDS011;54566;52.022;5.582;2023-07-20T13:50:28;0.95;;;0.68;;
67762;SDS011;54566;52.022;5.582;2023-07-20T13:52:54;0.75;;;0.60;;
67762;SDS011;54566;52.022;5.582;2023-07-20T13:55:20;3.08;;;0.98;;
67762;SDS011;54566;52.022;5.582;2023-07-20T13:57:47;0.80;;;0.75;;
67762;SDS011;54566;52.022;5.582;2023-07-20T14:00:13;1.80;;;0.93;;
67762;SDS011;54566;52.022;5.582;2023-07-20T14:02:39;1.88;;;0.85;;
67762;SDS011;54566;52.022;5.582;2023-07-20T14:05:05;2.95;;;0.90;;
67762;SDS011;54566;52.022;5.582;2023-07-20T14:07:31;1.58;;;0.85;;
67762;SDS011;54566;52.022;5.582;2023-07-20T14:09:57;2.08;;;0.88;;
67762;SDS011;54566;52.022;5.582;2023-07-20T14:12:24;1.33;;;0.90;;
67762;SDS011;54566;52.022;5.582;2023-07-20T14:14:50;1.35;;;0.90;;
67762;SDS011;54566;52.022;5.582;2023-07-20T14:17:16;1.60;;;0.90;;
67762;SDS011;54566;52.022;5.582;2023-07-20T14:19:42;1.42;;;0.80;;
67762;SDS011;54566;52.022;5.582;2023-07-20T14:22:09;2.10;;;0.80;;
67762;SDS011;54566;52.022;5.582;2023-07-20T14:24:35;1.17;;;0.80;;
67762;SDS011;54566;52.022;5.582;2023-07-20T14:27:01;1.45;;;0.85;;
67762;SDS011;54566;52.022;5.582;2023-07-20T14:29:27;2.05;;;0.82;;
67762;SDS011;54566;52.022;5.582;2023-07-20T14:31:56;1.95;;;1.10;;
67762;SDS011;54566;52.022;5.582;2023-07-20T14:34:22;5.82;;;0.82;;
67762;SDS011;54566;52.022;5.582;2023-07-20T14:36:48;5.65;;;0.82;;
67762;SDS011;54566;52.022;5.582;2023-07-20T14:39:15;1.30;;;0.90;;
67762;SDS011;54566;52.022;5.582;2023-07-20T14:41:41;1.25;;;0.70;;
67762;SDS011;54566;52.022;5.582;2023-07-20T14:44:08;3.42;;;0.90;;
67762;SDS011;54566;52.022;5.582;2023-07-20T14:46:35;2.70;;;0.90;;
67762;SDS011;54566;52.022;5.582;2023-07-20T14:49:01;2.92;;;0.90;;
67762;SDS011;54566;52.022;5.582;2023-07-20T14:51:27;1.23;;;0.90;;
67762;SDS011;54566;52.022;5.582;2023-07-20T14:53:58;2.65;;;0.82;;
67762;SDS011;54566;52.022;5.582;2023-07-20T14:56:25;2.38;;;0.90;;
67762;SDS011;54566;52.022;5.582;2023-07-20T14:58:51;2.72;;;0.70;;
67762;SDS011;54566;52.022;5.582;2023-07-20T15:01:17;2.30;;;1.00;;
67762;SDS011;54566;52.022;5.582;2023-07-20T15:03:43;3.50;;;0.90;;
67762;SDS011;54566;52.022;5.582;2023-07-20T15:06:12;1.75;;;1.00;;
67762;SDS011;54566;52.022;5.582;2023-07-20T15:08:38;1.42;;;0.80;;
67762;SDS011;54566;52.022;5.582;2023-07-20T15:11:04;1.60;;;0.80;;